Time;durP1;ratioP1;P1;durP2;ratioP2;P2;SDS_P1;SDS_P2;PMS_P1;PMS_P2;Temp;Humidity;BMP_temperature;BMP_pressure;BME280_temperature;BME280_humidity;BME280_pressure;Samples;Min_cycle;Max_cycle;Signal;HPM_P1;HPM_P2
2023/06/27 00:01:18;;;;;;;9.27;2.85;;;;;;;21.99;65.04;99407.34;3167315;27;20104;-71
2023/06/27 00:02:53;;;;;;;8.98;3.08;;;;;;;21.96;64.76;99410.31;3176260;27;20137;-71
2023/06/27 00:04:25;;;;;;;7.60;3.45;;;;;;;21.95;64.51;99406.00;3172330;27;20120;-72
2023/06/27 00:06:00;;;;;;;4.50;2.70;;;;;;;21.87;64.99;99397.97;3174933;27;20054;-71
2023/06/27 00:07:32;;;;;;;6.63;2.72;;;;;;;21.92;64.92;99408.97;3174911;27;20043;-72
2023/06/27 00:09:08;;;;;;;4.93;2.50;;;;;;;21.93;64.72;99406.13;3177531;27;20099;-73
2023/06/27 00:10:40;;;;;;;5.43;2.97;;;;;;;21.94;64.51;99399.84;3177677;27;20133;-72
2023/06/27 00:12:12;;;;;;;5.55;2.47;;;;;;;21.94;64.38;99401.66;3177307;27;20054;-73
2023/06/27 00:13:43;;;;;;;5.75;3.83;;;;;;;21.96;64.52;99407.66;3177565;27;20112;-73
2023/06/27 00:15:18;;;;;;;5.03;2.80;;;;;;;21.97;64.41;99410.13;3177642;27;20046;-71
2023/06/27 00:16:51;;;;;;;4.78;2.60;;;;;;;22.00;64.27;99416.97;3177680;28;20090;-73
2023/06/27 00:18:23;;;;;;;4.28;2.90;;;;;;;21.99;64.64;99413.47;3177579;28;20043;-73
2023/06/27 00:19:58;;;;;;;5.53;3.10;;;;;;;22.01;64.30;99424.78;3177368;28;20050;-72
2023/06/27 00:21:28;;;;;;;3.05;2.35;;;;;;;22.00;64.63;99424.91;3173934;28;20638;-72
2023/06/27 00:23:16;;;;;;;8.50;3.45;;;;;;;22.00;64.63;99436.34;3168600;28;20133;-72
2023/06/27 00:24:50;;;;;;;5.07;2.58;;;;;;;21.98;64.66;99433.03;3177417;28;20047;-73
2023/06/27 00:26:21;;;;;;;;;;;;;;;21.74;64.87;99425.69;3178075;28;20130;-72
2023/06/27 00:27:53;;;;;;;5.32;2.75;;;;;;;21.87;65.35;99429.78;3176565;28;20003;-73
2023/06/27 00:29:26;;;;;;;4.53;2.50;;;;;;;21.90;64.78;99432.94;3167857;28;20051;-71
2023/06/27 00:30:57;;;;;;;6.20;2.58;;;;;;;21.95;65.28;99438.66;3176475;28;20056;-73
2023/06/27 00:32:29;;;;;;;5.47;2.63;;;;;;;21.98;64.86;99435.69;3177301;28;20051;-73
2023/06/27 00:34:01;;;;;;;4.35;2.58;;;;;;;22.01;65.32;99432.72;3168257;28;20580;-73
2023/06/27 00:35:32;;;;;;;4.72;2.88;;;;;;;22.04;65.38;99440.38;3175538;28;20061;-73
2023/06/27 00:37:05;;;;;;;6.43;2.55;;;;;;;22.07;65.40;99430.47;3168939;28;20047;-75
2023/06/27 00:38:37;;;;;;;7.53;3.40;;;;;;;22.06;65.76;99431.44;3177358;28;20652;-74
2023/06/27 00:40:11;;;;;;;3.85;2.83;;;;;;;22.09;66.00;99428.47;3170207;28;20063;-73
2023/06/27 00:41:43;;;;;;;9.82;3.63;;;;;;;22.07;66.09;99431.31;3177467;28;20129;-72
2023/06/27 00:43:15;;;;;;;12.10;3.30;;;;;;;22.07;66.47;99435.78;3177561;28;20098;-72
2023/06/27 00:44:47;;;;;;;4.75;3.20;;;;;;;22.03;66.48;99433.41;3177150;28;20087;-71
2023/06/27 00:46:32;;;;;;;6.55;3.22;;;;;;;22.01;66.41;99432.72;3177341;28;20104;-73
2023/06/27 00:48:05;;;;;;;5.40;3.30;;;;;;;21.96;67.17;99432.34;3172004;28;20044;-73
2023/06/27 00:49:37;;;;;;;11.18;3.05;;;;;;;21.97;67.00;99431.34;3176707;28;20051;-73
2023/06/27 00:51:10;;;;;;;5.03;3.25;;;;;;;21.98;66.79;99435.69;3172761;28;20090;-73
2023/06/27 00:52:43;;;;;;;8.02;3.35;;;;;;;21.98;66.88;99425.09;3172994;28;20047;-74
2023/06/27 00:54:16;;;;;;;6.47;3.17;;;;;;;21.98;67.40;99426.91;3177662;28;20054;-74
2023/06/27 00:55:49;;;;;;;8.48;3.22;;;;;;;21.95;67.48;99433.34;3176927;28;20055;-76
2023/06/27 00:57:21;;;;;;;;;;;;;;;21.78;67.49;99436.81;3177797;28;20595;-74
2023/06/27 00:58:53;;;;;;;9.02;3.40;;;;;;;21.87;67.33;99429.78;3177395;28;19930;-74
2023/06/27 01:00:25;;;;;;;5.30;3.58;;;;;;;21.92;67.65;99444.25;3175878;28;20051;-74
2023/06/27 01:01:57;;;;;;;4.88;3.05;;;;;;;21.92;67.38;99433.66;3169097;28;20066;-74
2023/06/27 01:03:32;;;;;;;6.07;3.30;;;;;;;21.93;67.68;99429.16;3177170;28;20054;-75
2023/06/27 01:05:05;;;;;;;6.43;3.03;;;;;;;21.94;67.74;99441.44;3169317;28;20043;-74
2023/06/27 01:06:48;;;;;;;5.85;3.10;;;;;;;21.93;67.94;99431.81;3175181;28;20055;-74
2023/06/27 01:08:26;;;;;;;7.40;4.18;;;;;;;21.87;67.67;99435.91;3176949;28;20521;-74
2023/06/27 01:10:04;;;;;;;5.03;2.58;;;;;;;21.88;67.80;99437.56;3176988;28;20054;-74
2023/06/27 01:11:41;;;;;;;5.90;3.38;;;;;;;21.85;68.10;99435.22;3177038;28;20054;-72
2023/06/27 01:13:21;;;;;;;6.40;3.22;;;;;;;21.85;68.24;99435.22;3178608;27;20051;-74
2023/06/27 01:14:57;;;;;;;4.75;3.28;;;;;;;21.84;68.00;99435.38;3179719;27;20541;-74
2023/06/27 01:16:31;;;;;;;5.57;3.30;;;;;;;21.85;68.24;99440.50;3179605;27;20420;-74
2023/06/27 01:18:05;;;;;;;11.05;3.40;;;;;;;21.86;68.27;99433.38;3179559;27;20130;-74
2023/06/27 01:19:38;;;;;;;8.95;4.22;;;;;;;21.86;68.12;99436.03;3179448;27;20093;-73
2023/06/27 01:21:10;;;;;;;;;;;;;;;21.64;68.14;99439.97;3179250;27;20079;-74
2023/06/27 01:22:45;;;;;;;4.53;3.38;;;;;;;21.67;68.53;99448.44;3168461;27;19924;-74
2023/06/27 01:24:19;;;;;;;6.78;3.42;;;;;;;21.68;68.54;99447.47;3178418;27;20158;-73
2023/06/27 01:25:50;;;;;;;;;;;;;;;21.47;68.83;99445.06;3180081;27;20104;-74
2023/06/27 01:27:22;;;;;;;7.05;3.45;;;;;;;21.53;69.12;99448.94;3179547;27;20480;-74
2023/06/27 01:28:54;;;;;;;9.63;3.42;;;;;;;21.55;69.07;99442.53;3179427;27;20042;-74
2023/06/27 01:30:25;;;;;;;9.05;4.18;;;;;;;21.50;68.89;99442.16;3167642;27;20116;-73
2023/06/27 01:32:05;;;;;;;9.55;4.10;;;;;;;21.49;68.97;99435.16;3178192;27;20066;-73
2023/06/27 01:33:47;;;;;;;10.20;3.97;;;;;;;21.46;69.07;99435.47;3179535;27;20153;-74
2023/06/27 01:35:26;;;;;;;11.52;3.47;;;;;;;21.42;69.45;99434.09;3178866;27;20181;-75
2023/06/27 01:37:03;;;;;;;8.40;4.13;;;;;;;21.38;69.26;99435.34;3171408;27;20051;-76
2023/06/27 01:38:42;;;;;;;5.97;3.70;;;;;;;21.35;69.86;99431.19;3178848;27;20039;-76
2023/06/27 01:40:20;;;;;;;7.22;3.47;;;;;;;21.32;69.47;99431.44;3169899;27;20183;-76
2023/06/27 01:41:56;;;;;;;11.13;3.97;;;;;;;21.33;70.17;99437.59;3166699;28;20071;-74
2023/06/27 01:43:30;;;;;;;7.45;3.95;;;;;;;21.35;69.71;99427.69;3166341;28;20059;-74
2023/06/27 01:45:03;;;;;;;6.88;4.07;;;;;;;21.28;69.75;99419.50;3178553;27;20607;-74
2023/06/27 01:46:36;;;;;;;6.72;3.97;;;;;;;21.35;69.37;99427.69;3178414;27;20047;-74
2023/06/27 01:48:10;;;;;;;9.25;4.60;;;;;;;21.36;69.52;99434.69;3177319;27;20051;-73
2023/06/27 01:49:42;;;;;;;6.35;4.10;;;;;;;21.33;69.62;99432.31;3177659;27;20062;-73
2023/06/27 01:51:14;;;;;;;7.30;4.32;;;;;;;21.31;69.49;99428.97;3174597;27;20055;-74
2023/06/27 01:52:46;;;;;;;10.85;4.47;;;;;;;21.26;69.79;99428.56;3175651;27;20184;-77
2023/06/27 01:54:17;;;;;;;8.10;4.15;;;;;;;21.23;69.66;99428.84;3179162;27;20217;-79
2023/06/27 01:55:51;;;;;;;7.78;4.28;;;;;;;21.19;69.97;99433.63;3179050;27;20062;-78
2023/06/27 01:57:22;;;;;;;;;;;;;;;20.97;69.99;99434.84;3179437;27;20232;-78
2023/06/27 01:58:55;;;;;;;7.43;3.90;;;;;;;20.99;70.47;99429.38;3179040;27;19923;-78
2023/06/27 02:00:28;;;;;;;8.93;3.97;;;;;;;21.00;70.57;99423.94;3177813;27;20132;-79
2023/06/27 02:02:00;;;;;;;8.27;3.80;;;;;;;20.98;70.56;99415.31;3172175;27;20058;-77
2023/06/27 02:03:33;;;;;;;8.88;4.05;;;;;;;21.01;70.39;99422.13;3179529;27;20051;-77
2023/06/27 02:05:06;;;;;;;10.50;3.58;;;;;;;20.94;70.61;99416.59;3172620;27;20051;-77
2023/06/27 02:06:40;;;;;;;7.88;4.18;;;;;;;21.00;70.83;99423.94;3178112;27;20111;-78
2023/06/27 02:08:12;;;;;;;8.27;3.83;;;;;;;21.02;70.83;99416.69;3179319;27;20047;-78
2023/06/27 02:09:45;;;;;;;7.22;3.75;;;;;;;21.02;70.90;99423.78;3179195;27;20055;-75
2023/06/27 02:11:18;;;;;;;6.97;4.75;;;;;;;20.99;70.66;99430.22;3178866;27;20108;-75
2023/06/27 02:12:50;;;;;;;;;;;;;;;20.77;71.25;99423.47;3179349;27;20059;-75
2023/06/27 02:14:21;;;;;;;6.45;3.53;;;;;;;20.80;71.47;99420.53;3179031;27;19954;-76
2023/06/27 02:15:54;;;;;;;7.47;4.07;;;;;;;20.82;71.26;99433.59;3178875;27;20443;-75
2023/06/27 02:17:25;;;;;;;6.68;3.72;;;;;;;20.81;71.61;99426.66;3178983;27;20051;-76
2023/06/27 02:18:57;;;;;;;7.07;3.40;;;;;;;20.84;71.53;99429.00;3178900;27;20566;-76
2023/06/27 02:20:29;;;;;;;5.40;3.42;;;;;;;20.87;71.67;99436.66;3177060;27;20061;-75
2023/06/27 02:22:01;;;;;;;7.22;4.20;;;;;;;20.89;71.45;99430.25;3169463;27;20116;-76
2023/06/27 02:23:33;;;;;;;6.40;3.10;;;;;;;20.92;71.67;99442.38;3178786;27;20066;-75
2023/06/27 02:25:05;;;;;;;7.10;4.60;;;;;;;20.93;71.52;99432.59;3178017;27;20050;-76
2023/06/27 02:26:38;;;;;;;11.30;4.10;;;;;;;20.95;71.43;99439.44;3176253;27;20618;-76
2023/06/27 02:28:10;;;;;;;;;;;;;;;20.79;71.70;99440.00;3179331;27;20594;-76
2023/06/27 02:29:42;;;;;;;10.50;3.72;;;;;;;20.89;71.35;99445.31;3178804;27;20471;-76
2023/06/27 02:31:14;;;;;;;8.32;3.65;;;;;;;20.94;71.39;99440.41;3178679;27;20061;-76
2023/06/27 02:32:46;;;;;;;7.68;4.68;;;;;;;20.96;71.28;99442.91;3177988;27;20054;-78
2023/06/27 02:34:17;;;;;;;12.63;4.25;;;;;;;20.98;71.59;99443.59;3178284;27;20061;-77
2023/06/27 02:35:49;;;;;;;15.85;4.03;;;;;;;21.00;71.08;99442.47;3176278;27;20051;-77
2023/06/27 02:37:21;;;;;;;8.55;3.97;;;;;;;21.02;71.13;99447.63;3174959;27;20485;-77
2023/06/27 02:38:54;;;;;;;7.95;3.92;;;;;;;21.03;71.38;99439.53;3178606;27;20482;-75
2023/06/27 02:40:28;;;;;;;8.93;4.15;;;;;;;21.03;71.38;99444.84;3167712;27;20863;-75
2023/06/27 02:42:01;;;;;;;;;;;;;;;20.88;71.50;99443.63;3179396;27;20051;-75
2023/06/27 02:43:33;;;;;;;10.35;5.03;;;;;;;20.94;71.47;99445.72;3165908;28;19984;-77
2023/06/27 02:45:06;;;;;;;5.75;3.67;;;;;;;21.00;71.57;99446.91;3177906;27;20820;-75
2023/06/27 02:46:37;;;;;;;8.32;4.32;;;;;;;20.98;71.49;99449.72;3177813;27;20100;-76
2023/06/27 02:48:08;;;;;;;8.40;4.03;;;;;;;21.01;71.64;99446.78;3176942;27;20070;-76
2023/06/27 02:49:42;;;;;;;8.95;3.92;;;;;;;21.05;71.50;99450.81;3177118;27;20096;-75
2023/06/27 02:51:13;;;;;;;8.63;4.13;;;;;;;21.06;71.56;99452.50;3173985;27;20078;-75
2023/06/27 02:52:45;;;;;;;7.28;4.57;;;;;;;21.07;71.71;99454.16;3178511;27;20051;-74
2023/06/27 02:54:16;;;;;;;9.63;4.38;;;;;;;21.07;71.40;99451.50;3178474;27;20043;-74
2023/06/27 02:55:49;;;;;;;8.35;4.68;;;;;;;21.11;71.17;99455.50;3178222;27;20155;-74
2023/06/27 02:57:22;;;;;;;13.43;4.33;;;;;;;21.09;71.11;99454.03;3178743;27;20059;-74
2023/06/27 02:58:53;;;;;;;11.07;4.85;;;;;;;21.10;71.55;99451.22;3179267;27;20797;-75
2023/06/27 03:00:25;;;;;;;7.95;4.90;;;;;;;21.12;71.35;99453.72;3178144;27;20055;-75
2023/06/27 03:01:57;;;;;;;13.00;4.18;;;;;;;21.14;71.23;99454.41;3170975;27;20862;-75
2023/06/27 03:03:28;;;;;;;6.45;4.80;;;;;;;21.15;71.60;99456.09;3178557;27;20534;-75
2023/06/27 03:05:00;;;;;;;9.48;5.57;;;;;;;21.16;71.58;99452.44;3170668;27;20058;-74
2023/06/27 03:06:33;;;;;;;8.00;4.63;;;;;;;21.18;71.51;99457.59;3176134;27;20097;-74
2023/06/27 03:08:05;;;;;;;6.75;4.40;;;;;;;21.14;71.61;99449.09;3172490;27;20051;-75
2023/06/27 03:09:37;;;;;;;11.65;4.28;;;;;;;21.15;71.30;99450.78;3183318;27;20475;-74
2023/06/27 03:11:09;;;;;;;8.35;4.43;;;;;;;21.15;71.50;99448.13;3183199;27;20051;-74
2023/06/27 03:12:42;;;;;;;10.48;5.07;;;;;;;21.19;71.72;99452.16;3183565;27;20528;-74
2023/06/27 03:14:17;;;;;;;10.07;5.22;;;;;;;21.16;71.63;99454.25;3183738;27;20119;-74
2023/06/27 03:15:49;;;;;;;9.00;4.88;;;;;;;21.12;71.79;99459.03;3183353;27;20043;-76
2023/06/27 03:17:19;;;;;;;8.18;4.88;;;;;;;21.11;71.99;99458.16;3176465;27;20051;-76
2023/06/27 03:18:51;;;;;;;10.18;5.70;;;;;;;21.13;71.67;99452.75;3181243;27;20057;-77
2023/06/27 03:20:22;;;;;;;8.52;4.40;;;;;;;21.13;71.87;99453.56;3183597;27;20058;-77
2023/06/27 03:21:54;;;;;;;16.70;4.90;;;;;;;21.13;71.81;99460.69;3176132;27;20040;-77
2023/06/27 03:23:26;;;;;;;15.63;4.82;;;;;;;21.14;71.89;99455.22;3178862;27;20439;-77
2023/06/27 03:24:57;;;;;;;11.20;4.45;;;;;;;21.17;72.13;99461.22;3183346;27;20063;-77
2023/06/27 03:26:30;;;;;;;10.23;4.82;;;;;;;21.16;72.18;99460.38;3183244;27;20047;-77
2023/06/27 03:28:03;;;;;;;12.57;4.93;;;;;;;21.14;71.95;99465.81;3183303;27;20072;-77
2023/06/27 03:29:35;;;;;;;9.73;4.95;;;;;;;21.12;72.01;99469.63;3182979;27;20043;-77
2023/06/27 03:31:07;;;;;;;8.02;4.70;;;;;;;21.12;72.12;99464.31;3183358;27;20054;-77
2023/06/27 03:32:39;;;;;;;9.98;5.15;;;;;;;21.09;72.53;99461.97;3183821;27;20380;-77
2023/06/27 03:34:11;;;;;;;9.82;4.68;;;;;;;21.11;72.49;99458.16;3182989;27;20051;-78
2023/06/27 03:35:42;;;;;;;15.40;5.05;;;;;;;21.12;72.35;99456.38;3180872;27;20650;-77
2023/06/27 03:37:14;;;;;;;9.40;5.20;;;;;;;21.14;72.58;99465.81;3173946;27;20161;-78
2023/06/27 03:38:47;;;;;;;11.00;4.75;;;;;;;21.14;72.52;99463.16;3183426;27;20051;-77
2023/06/27 03:40:19;;;;;;;12.38;4.88;;;;;;;21.18;72.03;99468.16;3168062;28;20542;-77
2023/06/27 03:41:51;;;;;;;15.95;5.00;;;;;;;21.19;72.20;99456.63;3183172;27;20051;-79
2023/06/27 03:43:25;;;;;;;8.48;4.30;;;;;;;21.27;72.06;99467.31;3183356;27;20376;-78
2023/06/27 03:44:56;;;;;;;18.10;6.20;;;;;;;21.27;72.37;99459.38;3183324;27;20058;-78
2023/06/27 03:46:28;;;;;;;13.38;4.90;;;;;;;21.27;72.16;99462.03;3183090;27;20058;-77
2023/06/27 03:47:58;;;;;;;16.77;4.90;;;;;;;21.26;72.25;99463.81;3180245;27;20107;-77
2023/06/27 03:49:30;;;;;;;10.27;5.07;;;;;;;21.26;72.66;99460.34;3183271;27;20043;-76
2023/06/27 03:51:02;;;;;;;7.88;4.75;;;;;;;21.27;72.56;99459.38;3182648;27;20531;-77
2023/06/27 03:52:34;;;;;;;13.38;5.00;;;;;;;21.26;72.26;99457.69;3177855;27;20096;-80
2023/06/27 03:54:06;;;;;;;11.65;4.55;;;;;;;21.27;72.31;99454.09;3182941;27;20453;-80
2023/06/27 03:55:40;;;;;;;14.13;6.05;;;;;;;21.27;72.49;99460.22;3183082;27;20507;-80
2023/06/27 03:57:12;;;;;;;10.43;5.47;;;;;;;21.29;72.42;99462.69;3182998;27;20047;-78
2023/06/27 03:58:45;;;;;;;13.93;5.88;;;;;;;21.29;72.58;99460.03;3182953;27;20050;-78
2023/06/27 04:00:18;;;;;;;12.13;5.90;;;;;;;21.32;72.37;99465.06;3182248;27;20051;-78
2023/06/27 04:01:49;;;;;;;18.47;5.80;;;;;;;21.34;72.36;99463.09;3174012;27;20161;-79
2023/06/27 04:03:20;;;;;;;11.48;6.15;;;;;;;21.35;72.15;99462.09;3182862;27;20051;-78
2023/06/27 04:04:52;;;;;;;11.27;5.22;;;;;;;21.34;72.32;99460.44;3180138;27;20043;-78
2023/06/27 04:06:24;;;;;;;9.80;5.40;;;;;;;21.35;72.37;99462.97;3181169;27;20077;-77
2023/06/27 04:07:56;;;;;;;12.18;5.25;;;;;;;21.36;72.42;99463.81;3183107;27;20061;-78
2023/06/27 04:09:28;;;;;;;9.82;5.22;;;;;;;21.30;72.91;99459.91;3183173;27;20436;-78
2023/06/27 04:10:59;;;;;;;10.52;5.00;;;;;;;21.30;72.75;99469.69;3182143;27;20156;-78
2023/06/27 04:12:31;;;;;;;10.07;5.57;;;;;;;21.31;72.60;99464.22;3182499;27;20043;-79
2023/06/27 04:14:05;;;;;;;14.30;5.82;;;;;;;21.30;72.66;99457.28;3175722;27;20408;-76
2023/06/27 04:15:39;;;;;;;14.95;5.72;;;;;;;21.32;73.08;99465.06;3182388;27;20527;-77
2023/06/27 04:17:11;;;;;;;12.65;5.00;;;;;;;21.36;72.69;99461.19;3182673;28;20587;-77
2023/06/27 04:18:43;;;;;;;19.25;5.68;;;;;;;21.40;72.75;99461.72;3175363;28;20516;-77
2023/06/27 04:20:15;;;;;;;14.88;5.45;;;;;;;21.44;72.82;99455.97;3171576;28;20059;-75
2023/06/27 04:21:47;;;;;;;11.18;5.15;;;;;;;21.47;72.51;99465.44;3176689;28;20047;-74
2023/06/27 04:23:19;;;;;;;18.40;5.13;;;;;;;21.47;72.76;99460.97;3175866;28;20054;-75
2023/06/27 04:24:50;;;;;;;13.57;5.38;;;;;;;21.52;72.55;99465.84;3182900;28;20527;-75
2023/06/27 04:26:22;;;;;;;8.80;5.20;;;;;;;21.54;72.30;99471.81;3182867;28;20104;-78
2023/06/27 04:27:54;;;;;;;13.23;4.60;;;;;;;21.55;72.35;99473.47;3183755;28;20050;-74
2023/06/27 04:29:27;;;;;;;10.63;4.80;;;;;;;21.58;72.04;99478.50;3182736;28;20074;-75
2023/06/27 04:31:00;;;;;;;14.68;5.32;;;;;;;21.57;72.49;99475.00;3182529;28;20077;-72
2023/06/27 04:32:33;;;;;;;11.27;5.68;;;;;;;21.60;72.42;99478.34;3182602;28;20050;-73
2023/06/27 04:34:08;;;;;;;20.70;11.38;;;;;;;21.59;72.04;99480.16;3176570;28;20445;-73
2023/06/27 04:35:40;;;;;;;43.80;24.00;;;;;;;21.63;72.25;99475.41;3180687;28;20051;-70
2023/06/27 04:37:12;;;;;;;30.83;16.27;;;;;;;21.68;72.27;99481.06;3173838;28;20797;-71
2023/06/27 04:38:44;;;;;;;23.80;12.55;;;;;;;21.74;71.85;99483.13;3182714;28;20047;-74
2023/06/27 04:40:16;;;;;;;27.15;12.73;;;;;;;21.75;71.56;99476.88;3182862;28;20092;-74
2023/06/27 04:41:47;;;;;;;19.60;8.57;;;;;;;21.84;71.34;99488.41;3182649;28;20111;-69
2023/06/27 04:43:19;;;;;;;15.52;5.22;;;;;;;21.90;71.17;99485.97;3183113;28;20043;-69
2023/06/27 04:44:55;;;;;;;14.05;5.80;;;;;;;21.94;71.09;99487.31;3182859;28;20059;-68
2023/06/27 04:46:28;;;;;;;19.13;7.55;;;;;;;21.95;70.57;99490.84;3182192;28;20051;-67
2023/06/27 04:48:00;;;;;;;12.55;4.95;;;;;;;21.92;70.83;99486.66;3182656;27;20092;-65
2023/06/27 04:49:32;;;;;;;11.77;4.75;;;;;;;21.93;70.80;99495.44;3185506;27;20031;-64
2023/06/27 04:51:04;;;;;;;6.45;4.18;;;;;;;21.93;70.70;99496.28;3170118;27;20450;-66
2023/06/27 04:52:36;;;;;;;14.23;5.00;;;;;;;21.92;70.62;99494.63;3172376;28;20050;-66
2023/06/27 04:54:08;;;;;;;9.32;4.88;;;;;;;21.92;70.43;99491.13;3172234;28;20435;-72
2023/06/27 04:55:39;;;;;;;10.35;5.05;;;;;;;21.92;70.16;99497.28;3171945;28;20047;-73
2023/06/27 04:57:11;;;;;;;9.48;4.57;;;;;;;21.92;69.94;99494.63;3173397;28;20040;-74
2023/06/27 04:58:43;;;;;;;10.10;5.00;;;;;;;21.94;70.24;99497.09;3168806;28;20055;-77
2023/06/27 05:00:17;;;;;;;11.70;4.35;;;;;;;21.96;69.79;99495.16;3158981;28;20084;-72
2023/06/27 05:01:49;;;;;;;11.90;5.25;;;;;;;21.94;69.83;99495.28;3170289;28;20139;-74
2023/06/27 05:03:22;;;;;;;11.23;4.68;;;;;;;21.98;69.90;99486.06;3172031;28;20444;-80
2023/06/27 05:04:53;;;;;;;11.13;5.13;;;;;;;22.04;69.82;99490.75;3170122;28;20051;-73
2023/06/27 05:06:25;;;;;;;9.88;4.43;;;;;;;22.07;69.64;99488.81;3165177;28;20056;-76
2023/06/27 05:07:57;;;;;;;14.90;5.45;;;;;;;22.12;69.89;99487.34;3159540;28;20143;-79
2023/06/27 05:09:29;;;;;;;17.77;4.85;;;;;;;22.19;69.49;99492.94;3155599;28;20050;-74
2023/06/27 05:11:41;;;;;;;12.38;5.00;;;;;;;22.24;69.29;99490.63;3165724;28;20059;-74
2023/06/27 05:15:52;;;;;;;11.45;4.93;;;;;;;22.26;69.38;99500.13;3158738;28;20534;-78
2023/06/27 05:17:24;;;;;;;11.57;4.88;;;;;;;22.33;69.11;99494.19;3166309;28;20040;-76
2023/06/27 05:18:55;;;;;;;15.35;5.07;;;;;;;22.39;69.29;99494.44;3171971;28;20055;-72
2023/06/27 05:20:27;;;;;;;12.32;5.43;;;;;;;22.47;68.96;99504.28;3171734;28;20407;-73
2023/06/27 05:21:59;;;;;;;13.68;5.22;;;;;;;22.53;68.33;99495.69;3167481;28;20044;-75
2023/06/27 05:23:31;;;;;;;10.30;4.18;;;;;;;22.56;68.17;99495.41;3171585;28;20051;-73
2023/06/27 05:25:02;;;;;;;12.75;4.68;;;;;;;22.54;67.98;99488.56;3171490;28;20047;-71
2023/06/27 05:26:35;;;;;;;8.18;4.47;;;;;;;22.65;67.82;99491.00;3171150;28;20055;-72
2023/06/27 05:28:07;;;;;;;14.13;4.63;;;;;;;22.69;67.77;99489.72;3171697;28;20116;-73
2023/06/27 05:29:40;;;;;;;10.73;4.63;;;;;;;22.75;67.30;99490.91;3171933;28;20058;-73
2023/06/27 05:31:13;;;;;;;12.55;5.25;;;;;;;22.81;67.44;99490.28;3171938;28;20055;-73
2023/06/27 05:32:46;;;;;;;;;;;;;;;22.72;67.38;99494.72;3172432;28;20128;-73
2023/06/27 05:34:18;;;;;;;10.70;4.47;;;;;;;22.81;67.14;99496.44;3171663;28;20343;-75
2023/06/27 05:35:50;;;;;;;12.23;5.05;;;;;;;22.89;66.21;99501.81;3171950;28;20323;-74
2023/06/27 05:37:21;;;;;;;13.30;4.82;;;;;;;22.95;66.11;99497.69;3159969;28;20440;-75
2023/06/27 05:38:54;;;;;;;10.57;4.30;;;;;;;23.00;65.73;99502.56;3164491;28;20105;-73
2023/06/27 05:40:26;;;;;;;8.75;4.55;;;;;;;23.03;65.18;99507.56;3170440;28;20494;-76
2023/06/27 05:41:58;;;;;;;9.15;4.47;;;;;;;23.07;64.93;99503.59;3172051;28;20051;-77
2023/06/27 05:43:30;;;;;;;9.85;4.40;;;;;;;23.09;65.30;99496.28;3171435;28;20382;-75
2023/06/27 05:45:02;;;;;;;11.88;4.88;;;;;;;23.14;65.09;99500.16;3171550;28;20588;-75
2023/06/27 05:46:38;;;;;;;9.40;4.50;;;;;;;23.23;65.04;99500.22;3171258;28;20527;-77
2023/06/27 05:48:10;;;;;;;9.88;4.25;;;;;;;23.29;64.32;99503.06;3170733;28;20138;-76
2023/06/27 05:49:42;;;;;;;6.97;4.05;;;;;;;23.36;64.51;99496.09;3169663;28;20047;-77
2023/06/27 05:51:22;;;;;;;12.02;4.47;;;;;;;23.44;63.92;99502.47;3158492;28;20145;-76
2023/06/27 05:52:53;;;;;;;8.30;3.78;;;;;;;23.47;63.94;99492.34;3153151;28;20472;-74
2023/06/27 05:54:26;;;;;;;9.25;4.28;;;;;;;23.56;63.23;99499.34;3166595;28;20588;-74
2023/06/27 05:55:57;;;;;;;10.63;4.18;;;;;;;23.63;63.27;99504.84;3170824;28;20458;-73
2023/06/27 05:57:30;;;;;;;11.95;4.70;;;;;;;23.71;63.01;99507.59;3171484;28;20044;-76
2023/06/27 05:59:02;;;;;;;9.68;4.22;;;;;;;23.81;62.31;99502.97;3163157;28;20080;-76
2023/06/27 06:00:34;;;;;;;7.05;4.82;;;;;;;23.87;62.44;99497.97;3166868;28;20080;-76
2023/06/27 06:02:07;;;;;;;6.65;4.22;;;;;;;23.94;61.99;99507.00;3166998;28;20139;-76
2023/06/27 06:03:40;;;;;;;;;;;;;;;23.88;62.07;99502.34;3171557;28;20130;-74
2023/06/27 06:05:14;;;;;;;9.93;4.13;;;;;;;24.00;61.74;99506.34;3162229;28;19973;-77
2023/06/27 06:06:46;;;;;;;9.50;4.03;;;;;;;24.09;60.98;99513.34;3158221;28;20513;-78
2023/06/27 06:08:20;;;;;;;9.77;3.90;;;;;;;24.15;60.90;99510.03;3165236;28;20058;-75
2023/06/27 06:09:51;;;;;;;10.30;3.58;;;;;;;24.21;60.33;99504.06;3171077;28;20501;-75
2023/06/27 06:11:23;;;;;;;20.77;4.03;;;;;;;24.27;59.95;99506.06;3163711;28;20055;-76
2023/06/27 06:12:55;;;;;;;8.45;4.10;;;;;;;24.37;59.34;99507.72;3171210;28;20154;-75
2023/06/27 06:14:27;;;;;;;10.10;4.53;;;;;;;24.43;58.83;99507.94;3171393;28;20043;-72
2023/06/27 06:15:59;;;;;;;8.05;3.78;;;;;;;24.49;58.77;99509.09;3171346;28;20459;-72
2023/06/27 06:17:33;;;;;;;9.07;4.50;;;;;;;24.54;57.71;99509.44;3171331;28;20090;-73
2023/06/27 06:19:07;;;;;;;12.13;5.03;;;;;;;24.57;57.97;99517.06;3171244;28;20069;-76
2023/06/27 06:20:39;;;;;;;5.68;3.72;;;;;;;24.59;57.51;99507.09;3171027;28;20440;-74
2023/06/27 06:22:11;;;;;;;7.90;4.18;;;;;;;24.65;57.34;99510.94;3161067;28;20052;-73
2023/06/27 06:23:43;;;;;;;9.07;4.60;;;;;;;24.64;56.83;99496.78;3170790;28;20048;-73
2023/06/27 06:25:16;;;;;;;5.93;3.75;;;;;;;24.73;56.65;99511.75;3145749;28;20057;-71
2023/06/27 06:26:48;;;;;;;7.50;4.32;;;;;;;24.71;56.49;99505.75;3170503;28;20052;-73
2023/06/27 06:28:20;;;;;;;8.50;4.38;;;;;;;24.75;56.51;99508.91;3170949;28;20043;-70
2023/06/27 06:29:52;;;;;;;12.85;4.45;;;;;;;24.80;56.49;99503.94;3171933;28;20574;-69
2023/06/27 06:31:24;;;;;;;9.32;4.13;;;;;;;24.86;55.87;99507.75;3159440;28;20052;-69
2023/06/27 06:32:58;;;;;;;6.40;4.70;;;;;;;24.94;55.60;99510.41;3167725;28;20056;-68
2023/06/27 06:34:33;;;;;;;11.38;3.72;;;;;;;25.03;55.66;99503.25;3170931;28;20048;-69
2023/06/27 06:36:09;;;;;;;9.02;4.68;;;;;;;25.10;55.29;99505.03;3171040;28;20504;-69
2023/06/27 06:37:50;;;;;;;7.25;4.03;;;;;;;25.15;55.00;99508.06;3162606;28;20058;-68
2023/06/27 06:39:29;;;;;;;7.28;4.35;;;;;;;25.19;55.06;99508.53;3168459;28;20051;-69
2023/06/27 06:41:04;;;;;;;5.63;3.85;;;;;;;25.23;54.56;99501.03;3163284;28;20645;-68
2023/06/27 06:42:42;;;;;;;7.38;4.20;;;;;;;25.25;54.74;99507.03;3170850;28;20051;-74
2023/06/27 06:44:24;;;;;;;10.02;4.40;;;;;;;25.29;54.40;99505.69;3171094;28;20050;-72
2023/06/27 06:46:05;;;;;;;8.18;4.50;;;;;;;25.31;54.89;99507.19;3156593;28;20517;-72
2023/06/27 06:47:37;;;;;;;8.30;4.35;;;;;;;25.41;54.83;99497.16;3161440;28;20056;-73
2023/06/27 06:49:24;;;;;;;7.70;4.53;;;;;;;25.51;54.50;99493.47;3167240;28;20127;-71
2023/06/27 06:50:58;;;;;;;8.10;4.10;;;;;;;25.56;54.39;99496.44;3158078;28;20138;-72
2023/06/27 06:52:31;;;;;;;6.28;4.50;;;;;;;25.62;54.00;99496.56;3156553;28;20047;-72
2023/06/27 06:56:17;;;;;;;8.75;4.63;;;;;;;25.69;53.95;99485.22;3158156;28;20535;-74
2023/06/27 06:57:54;;;;;;;8.70;4.07;;;;;;;25.81;53.74;99491.81;3170613;28;20051;-74
2023/06/27 06:59:27;;;;;;;9.60;4.20;;;;;;;25.86;53.53;99487.66;3170086;28;20417;-72
2023/06/27 07:01:05;;;;;;;9.80;4.38;;;;;;;25.94;53.38;99486.78;3167927;28;20046;-72
2023/06/27 07:02:50;;;;;;;12.00;4.40;;;;;;;26.12;53.10;99489.16;3169823;28;20056;-73
2023/06/27 07:04:38;;;;;;;12.70;4.03;;;;;;;26.18;52.83;99477.78;3165443;28;20040;-74
2023/06/27 07:06:10;;;;;;;7.63;4.20;;;;;;;26.20;52.60;99485.59;3162801;28;20047;-73
2023/06/27 07:07:43;;;;;;;13.05;8.75;;;;;;;26.26;51.94;99488.38;3154833;28;20052;-79
2023/06/27 07:09:15;;;;;;;10.13;6.68;;;;;;;26.30;52.19;99487.03;3170220;28;20987;-76
2023/06/27 07:10:47;;;;;;;56.92;43.78;;;;;;;26.36;52.06;99482.00;3169935;28;20573;-71
2023/06/27 07:12:19;;;;;;;11.70;7.55;;;;;;;26.44;51.90;99490.75;3170731;28;20047;-72
2023/06/27 07:13:51;;;;;;;9.70;5.00;;;;;;;26.54;51.61;99483.34;3170654;28;20475;-78
2023/06/27 07:15:23;;;;;;;9.95;4.60;;;;;;;26.64;51.81;99480.44;3170733;28;20497;-73
2023/06/27 07:16:55;;;;;;;5.67;4.13;;;;;;;26.71;51.54;99484.06;3169665;28;20055;-72
2023/06/27 07:18:27;;;;;;;8.43;4.57;;;;;;;26.76;51.45;99486.16;3170281;28;20058;-70
2023/06/27 07:20:01;;;;;;;6.57;4.50;;;;;;;26.84;50.76;99478.06;3170519;28;20065;-73
2023/06/27 07:21:34;;;;;;;9.25;4.43;;;;;;;26.88;50.72;99479.34;3157781;28;20067;-72
2023/06/27 07:23:06;;;;;;;7.70;4.50;;;;;;;27.03;50.27;99475.88;3140066;28;20131;-71